sensor_id;sensor_type;location;lat;lon;timestamp;temperature;humidity
7530;DHT22;3806;52.270;10.544;2023-04-03T00:01:54;3.00;96.80
7530;DHT22;3806;52.270;10.544;2023-04-03T00:04:20;3.00;97.00
7530;DHT22;3806;52.270;10.544;2023-04-03T00:06:45;2.90;97.20
7530;DHT22;3806;52.270;10.544;2023-04-03T00:09:11;2.90;97.30
7530;DHT22;3806;52.270;10.544;2023-04-03T00:11:37;2.90;97.40
7530;DHT22;3806;52.270;10.544;2023-04-03T00:14:03;2.80;97.40
7530;DHT22;3806;52.270;10.544;2023-04-03T00:16:28;2.80;97.40
7530;DHT22;3806;52.270;10.544;2023-04-03T00:18:54;2.80;97.50
7530;DHT22;3806;52.270;10.544;2023-04-03T00:21:19;2.60;97.50
7530;DHT22;3806;52.270;10.544;2023-04-03T00:23:45;2.80;97.70
7530;DHT22;3806;52.270;10.544;2023-04-03T00:26:11;2.80;97.80
7530;DHT22;3806;52.270;10.544;2023-04-03T00:28:36;2.70;97.80
7530;DHT22;3806;52.270;10.544;2023-04-03T00:31:02;2.70;97.90
7530;DHT22;3806;52.270;10.544;2023-04-03T00:33:28;2.70;98.10
7530;DHT22;3806;52.270;10.544;2023-04-03T00:35:53;2.70;98.10
7530;DHT22;3806;52.270;10.544;2023-04-03T00:38:18;2.70;98.10
7530;DHT22;3806;52.270;10.544;2023-04-03T00:40:47;2.60;98.20
7530;DHT22;3806;52.270;10.544;2023-04-03T00:43:24;2.60;98.30
7530;DHT22;3806;52.270;10.544;2023-04-03T00:45:55;2.60;98.40
7530;DHT22;3806;52.270;10.544;2023-04-03T00:48:31;2.60;98.50
7530;DHT22;3806;52.270;10.544;2023-04-03T00:50:58;2.60;98.50
7530;DHT22;3806;52.270;10.544;2023-04-03T00:53:30;2.60;98.60
7530;DHT22;3806;52.270;10.544;2023-04-03T00:55:56;2.50;98.60
7530;DHT22;3806;52.270;10.544;2023-04-03T00:58:27;2.50;99.00
7530;DHT22;3806;52.270;10.544;2023-04-03T01:00:55;2.50;98.80
7530;DHT22;3806;52.270;10.544;2023-04-03T01:03:23;2.50;98.80
7530;DHT22;3806;52.270;10.544;2023-04-03T01:05:49;2.50;98.90
7530;DHT22;3806;52.270;10.544;2023-04-03T01:08:15;2.50;98.90
7530;DHT22;3806;52.270;10.544;2023-04-03T01:10:41;2.40;98.90
7530;DHT22;3806;52.270;10.544;2023-04-03T01:13:28;2.40;98.90
7530;DHT22;3806;52.270;10.544;2023-04-03T01:15:54;2.40;99.10
7530;DHT22;3806;52.270;10.544;2023-04-03T01:18:21;2.40;99.20
7530;DHT22;3806;52.270;10.544;2023-04-03T01:26:07;2.30;99.40
7530;DHT22;3806;52.270;10.544;2023-04-03T01:28:35;2.20;99.40
7530;DHT22;3806;52.270;10.544;2023-04-03T01:33:32;2.20;99.60
7530;DHT22;3806;52.270;10.544;2023-04-03T01:35:58;2.20;99.60
7530;DHT22;3806;52.270;10.544;2023-04-03T01:38:23;2.20;99.90
7530;DHT22;3806;52.270;10.544;2023-04-03T01:40:49;2.10;99.70
7530;DHT22;3806;52.270;10.544;2023-04-03T01:43:15;2.10;99.70
7530;DHT22;3806;52.270;10.544;2023-04-03T01:45:40;2.10;99.90
7530;DHT22;3806;52.270;10.544;2023-04-03T01:48:06;2.00;99.90
7530;DHT22;3806;52.270;10.544;2023-04-03T01:50:31;2.00;99.90
7530;DHT22;3806;52.270;10.544;2023-04-03T01:52:57;2.00;99.90
7530;DHT22;3806;52.270;10.544;2023-04-03T01:55:22;1.90;99.90
7530;DHT22;3806;52.270;10.544;2023-04-03T01:57:48;1.90;99.90
7530;DHT22;3806;52.270;10.544;2023-04-03T02:00:14;1.90;99.90
7530;DHT22;3806;52.270;10.544;2023-04-03T02:02:39;1.90;99.90
7530;DHT22;3806;52.270;10.544;2023-04-03T02:05:05;1.80;99.90
7530;DHT22;3806;52.270;10.544;2023-04-03T02:07:31;1.90;99.90
7530;DHT22;3806;52.270;10.544;2023-04-03T02:09:57;1.80;99.90
7530;DHT22;3806;52.270;10.544;2023-04-03T02:12:22;1.80;99.90
7530;DHT22;3806;52.270;10.544;2023-04-03T02:14:48;1.80;99.90
7530;DHT22;3806;52.270;10.544;2023-04-03T02:17:13;1.70;99.90
7530;DHT22;3806;52.270;10.544;2023-04-03T02:19:39;1.80;99.90
7530;DHT22;3806;52.270;10.544;2023-04-03T02:22:05;1.70;99.90
7530;DHT22;3806;52.270;10.544;2023-04-03T02:24:31;1.80;99.90
7530;DHT22;3806;52.270;10.544;2023-04-03T02:26:57;1.80;99.90
7530;DHT22;3806;52.270;10.544;2023-04-03T02:29:22;1.80;99.90
7530;DHT22;3806;52.270;10.544;2023-04-03T02:31:49;1.80;99.90
7530;DHT22;3806;52.270;10.544;2023-04-03T02:34:14;1.80;99.90
7530;DHT22;3806;52.270;10.544;2023-04-03T02:36:40;1.70;99.90
7530;DHT22;3806;52.270;10.544;2023-04-03T02:39:06;1.70;99.90
7530;DHT22;3806;52.270;10.544;2023-04-03T02:41:31;1.70;99.90
7530;DHT22;3806;52.270;10.544;2023-04-03T02:44:04;1.70;99.90
7530;DHT22;3806;52.270;10.544;2023-04-03T02:46:30;1.70;99.90
7530;DHT22;3806;52.270;10.544;2023-04-03T02:48:56;1.70;99.90
7530;DHT22;3806;52.270;10.544;2023-04-03T02:51:21;1.70;99.90
7530;DHT22;3806;52.270;10.544;2023-04-03T02:53:48;1.70;99.90
7530;DHT22;3806;52.270;10.544;2023-04-03T02:56:14;1.60;99.90
7530;DHT22;3806;52.270;10.544;2023-04-03T02:58:39;1.60;99.90
7530;DHT22;3806;52.270;10.544;2023-04-03T03:01:05;1.60;99.90
7530;DHT22;3806;52.270;10.544;2023-04-03T03:03:31;1.60;99.90
7530;DHT22;3806;52.270;10.544;2023-04-03T03:06:04;1.60;99.90
7530;DHT22;3806;52.270;10.544;2023-04-03T03:08:30;1.50;99.90
7530;DHT22;3806;52.270;10.544;2023-04-03T03:10:55;1.50;99.90
7530;DHT22;3806;52.270;10.544;2023-04-03T03:13:21;1.60;99.90
7530;DHT22;3806;52.270;10.544;2023-04-03T03:15:46;1.50;99.90
7530;DHT22;3806;52.270;10.544;2023-04-03T03:18:12;1.50;99.90
7530;DHT22;3806;52.270;10.544;2023-04-03T03:20:37;1.50;99.90
7530;DHT22;3806;52.270;10.544;2023-04-03T03:23:03;1.50;99.90
7530;DHT22;3806;52.270;10.544;2023-04-03T03:25:28;1.40;99.90
7530;DHT22;3806;52.270;10.544;2023-04-03T03:27:54;1.40;99.90
7530;DHT22;3806;52.270;10.544;2023-04-03T03:30:19;1.40;99.90
7530;DHT22;3806;52.270;10.544;2023-04-03T03:32:45;1.40;99.90
7530;DHT22;3806;52.270;10.544;2023-04-03T03:35:10;1.40;99.90
7530;DHT22;3806;52.270;10.544;2023-04-03T03:37:36;1.40;99.90
7530;DHT22;3806;52.270;10.544;2023-04-03T03:40:01;1.40;99.90
7530;DHT22;3806;52.270;10.544;2023-04-03T03:42:27;1.40;99.90
7530;DHT22;3806;52.270;10.544;2023-04-03T03:44:53;1.40;99.90
7530;DHT22;3806;52.270;10.544;2023-04-03T03:47:18;1.40;99.90
7530;DHT22;3806;52.270;10.544;2023-04-03T03:49:44;1.40;99.90
7530;DHT22;3806;52.270;10.544;2023-04-03T03:52:09;1.40;99.90
7530;DHT22;3806;52.270;10.544;2023-04-03T03:54:36;1.40;99.90
7530;DHT22;3806;52.270;10.544;2023-04-03T03:57:02;1.30;99.90
7530;DHT22;3806;52.270;10.544;2023-04-03T03:59:28;1.40;99.90
7530;DHT22;3806;52.270;10.544;2023-04-03T04:01:53;1.30;99.90
7530;DHT22;3806;52.270;10.544;2023-04-03T04:04:19;1.30;99.90
7530;DHT22;3806;52.270;10.544;2023-04-03T04:06:45;1.30;99.90
7530;DHT22;3806;52.270;10.544;2023-04-03T04:09:11;1.30;99.90
7530;DHT22;3806;52.270;10.544;2023-04-03T04:11:37;1.30;99.90
7530;DHT22;3806;52.270;10.544;2023-04-03T04:14:05;1.30;99.90
7530;DHT22;3806;52.270;10.544;2023-04-03T04:16:30;1.30;99.90
7530;DHT22;3806;52.270;10.544;2023-04-03T04:18:56;1.30;99.90
7530;DHT22;3806;52.270;10.544;2023-04-03T04:21:21;1.30;99.90
7530;DHT22;3806;52.270;10.544;2023-04-03T04:23:47;1.20;99.90
7530;DHT22;3806;52.270;10.544;2023-04-03T04:26:12;1.20;99.90
7530;DHT22;3806;52.270;10.544;2023-04-03T04:28:38;1.20;99.90
7530;DHT22;3806;52.270;10.544;2023-04-03T04:31:03;1.20;99.90
7530;DHT22;3806;52.270;10.544;2023-04-03T04:33:29;1.20;99.90
7530;DHT22;3806;52.270;10.544;2023-04-03T04:35:54;1.20;99.90
7530;DHT22;3806;52.270;10.544;2023-04-03T04:38:20;1.20;99.90
7530;DHT22;3806;52.270;10.544;2023-04-03T04:40:47;1.20;99.90
7530;DHT22;3806;52.270;10.544;2023-04-03T04:43:13;1.20;99.90
7530;DHT22;3806;52.270;10.544;2023-04-03T04:45:40;1.20;99.90
7530;DHT22;3806;52.270;10.544;2023-04-03T04:48:05;1.10;99.90
7530;DHT22;3806;52.270;10.544;2023-04-03T04:50:33;1.00;99.90
7530;DHT22;3806;52.270;10.544;2023-04-03T04:53:00;1.10;99.90
7530;DHT22;3806;52.270;10.544;2023-04-03T04:55:26;1.10;99.90
7530;DHT22;3806;52.270;10.544;2023-04-03T04:57:51;1.10;99.90
7530;DHT22;3806;52.270;10.544;2023-04-03T05:00:17;1.10;99.90
7530;DHT22;3806;52.270;10.544;2023-04-03T05:02:43;1.10;99.90
7530;DHT22;3806;52.270;10.544;2023-04-03T05:05:08;1.10;99.90
7530;DHT22;3806;52.270;10.544;2023-04-03T05:07:34;1.20;99.90
7530;DHT22;3806;52.270;10.544;2023-04-03T05:10:01;1.20;99.90
7530;DHT22;3806;52.270;10.544;2023-04-03T05:12:27;1.20;99.90
7530;DHT22;3806;52.270;10.544;2023-04-03T05:14:53;1.20;99.90
7530;DHT22;3806;52.270;10.544;2023-04-03T05:17:19;1.20;99.90
7530;DHT22;3806;52.270;10.544;2023-04-03T05:19:44;1.20;99.90
7530;DHT22;3806;52.270;10.544;2023-04-03T05:22:10;1.30;99.90
7530;DHT22;3806;52.270;10.544;2023-04-03T05:24:35;1.30;99.90
7530;DHT22;3806;52.270;10.544;2023-04-03T05:27:01;1.40;99.90
7530;DHT22;3806;52.270;10.544;2023-04-03T05:29:26;1.40;99.90
7530;DHT22;3806;52.270;10.544;2023-04-03T05:31:52;1.40;99.90
7530;DHT22;3806;52.270;10.544;2023-04-03T05:34:18;1.40;99.90
7530;DHT22;3806;52.270;10.544;2023-04-03T05:36:43;1.50;99.90
7530;DHT22;3806;52.270;10.544;2023-04-03T05:39:09;1.50;99.90
7530;DHT22;3806;52.270;10.544;2023-04-03T05:41:34;1.60;99.90
7530;DHT22;3806;52.270;10.544;2023-04-03T05:44:00;1.60;99.90
7530;DHT22;3806;52.270;10.544;2023-04-03T05:46:26;1.70;99.90
7530;DHT22;3806;52.270;10.544;2023-04-03T05:48:51;1.90;99.90
7530;DHT22;3806;52.270;10.544;2023-04-03T05:51:20;2.20;99.90
7530;DHT22;3806;52.270;10.544;2023-04-03T05:53:47;2.70;99.90
7530;DHT22;3806;52.270;10.544;2023-04-03T05:56:13;3.60;99.90
7530;DHT22;3806;52.270;10.544;2023-04-03T05:58:39;5.00;99.80
7530;DHT22;3806;52.270;10.544;2023-04-03T06:01:05;6.70;95.80
7530;DHT22;3806;52.270;10.544;2023-04-03T06:03:31;8.30;91.70
7530;DHT22;3806;52.270;10.544;2023-04-03T06:05:56;9.90;79.20
7530;DHT22;3806;52.270;10.544;2023-04-03T06:08:22;11.40;68.50
7530;DHT22;3806;52.270;10.544;2023-04-03T06:10:49;12.80;56.50
7530;DHT22;3806;52.270;10.544;2023-04-03T06:13:15;14.10;50.90
7530;DHT22;3806;52.270;10.544;2023-04-03T06:15:41;15.30;45.50
7530;DHT22;3806;52.270;10.544;2023-04-03T06:18:06;16.30;42.60
7530;DHT22;3806;52.270;10.544;2023-04-03T06:20:32;17.40;40.40
7530;DHT22;3806;52.270;10.544;2023-04-03T06:22:58;18.50;37.90
7530;DHT22;3806;52.270;10.544;2023-04-03T06:25:23;19.40;34.00
7530;DHT22;3806;52.270;10.544;2023-04-03T06:27:49;20.10;32.30
7530;DHT22;3806;52.270;10.544;2023-04-03T06:30:14;20.90;30.80
7530;DHT22;3806;52.270;10.544;2023-04-03T06:32:40;21.70;29.60
7530;DHT22;3806;52.270;10.544;2023-04-03T06:35:06;22.50;28.50
7530;DHT22;3806;52.270;10.544;2023-04-03T06:37:32;22.80;26.60
7530;DHT22;3806;52.270;10.544;2023-04-03T06:39:58;23.00;26.30
7530;DHT22;3806;52.270;10.544;2023-04-03T06:42:23;23.50;25.90
7530;DHT22;3806;52.270;10.544;2023-04-03T06:44:49;24.10;25.40
7530;DHT22;3806;52.270;10.544;2023-04-03T06:47:16;24.70;24.90
7530;DHT22;3806;52.270;10.544;2023-04-03T06:49:42;25.30;24.40
7530;DHT22;3806;52.270;10.544;2023-04-03T06:52:08;25.70;23.70
7530;DHT22;3806;52.270;10.544;2023-04-03T06:54:34;26.20;23.30
7530;DHT22;3806;52.270;10.544;2023-04-03T06:57:00;26.50;22.30
7530;DHT22;3806;52.270;10.544;2023-04-03T06:59:26;26.90;22.20
7530;DHT22;3806;52.270;10.544;2023-04-03T07:01:52;27.40;22.30
7530;DHT22;3806;52.270;10.544;2023-04-03T07:04:17;27.90;21.40
7530;DHT22;3806;52.270;10.544;2023-04-03T07:06:45;28.50;21.10
7530;DHT22;3806;52.270;10.544;2023-04-03T07:09:12;29.00;20.60
7530;DHT22;3806;52.270;10.544;2023-04-03T07:11:38;29.50;20.00
7530;DHT22;3806;52.270;10.544;2023-04-03T07:14:03;30.00;19.50
7530;DHT22;3806;52.270;10.544;2023-04-03T07:16:29;30.30;19.10
7530;DHT22;3806;52.270;10.544;2023-04-03T07:18:57;30.40;18.60
7530;DHT22;3806;52.270;10.544;2023-04-03T07:21:23;30.60;18.40
7530;DHT22;3806;52.270;10.544;2023-04-03T07:23:49;30.90;18.20
7530;DHT22;3806;52.270;10.544;2023-04-03T07:26:14;31.10;17.90
7530;DHT22;3806;52.270;10.544;2023-04-03T07:28:40;31.40;17.80
7530;DHT22;3806;52.270;10.544;2023-04-03T07:31:10;31.50;17.20
7530;DHT22;3806;52.270;10.544;2023-04-03T07:33:39;31.40;17.10
7530;DHT22;3806;52.270;10.544;2023-04-03T07:36:05;31.00;17.10
7530;DHT22;3806;52.270;10.544;2023-04-03T07:38:32;30.60;17.20
7530;DHT22;3806;52.270;10.544;2023-04-03T07:40:57;29.90;17.40
7530;DHT22;3806;52.270;10.544;2023-04-03T07:43:23;28.90;17.50
7530;DHT22;3806;52.270;10.544;2023-04-03T07:45:50;27.60;18.00
7530;DHT22;3806;52.270;10.544;2023-04-03T07:48:18;26.30;18.80
7530;DHT22;3806;52.270;10.544;2023-04-03T07:50:44;25.20;19.60
7530;DHT22;3806;52.270;10.544;2023-04-03T07:53:10;24.40;20.30
7530;DHT22;3806;52.270;10.544;2023-04-03T07:55:36;23.70;20.70
7530;DHT22;3806;52.270;10.544;2023-04-03T07:58:14;23.30;21.20
7530;DHT22;3806;52.270;10.544;2023-04-03T08:00:40;23.30;21.40
7530;DHT22;3806;52.270;10.544;2023-04-03T08:03:06;23.60;21.30
7530;DHT22;3806;52.270;10.544;2023-04-03T08:05:40;24.20;21.20
7530;DHT22;3806;52.270;10.544;2023-04-03T08:08:06;24.80;21.20
7530;DHT22;3806;52.270;10.544;2023-04-03T08:10:33;25.40;20.00
7530;DHT22;3806;52.270;10.544;2023-04-03T08:12:59;26.00;20.10
7530;DHT22;3806;52.270;10.544;2023-04-03T08:15:25;26.60;19.20
7530;DHT22;3806;52.270;10.544;2023-04-03T08:17:50;27.50;18.80
7530;DHT22;3806;52.270;10.544;2023-04-03T08:20:17;28.40;18.10
7530;DHT22;3806;52.270;10.544;2023-04-03T08:22:42;29.30;17.70
7530;DHT22;3806;52.270;10.544;2023-04-03T08:25:08;30.20;17.20
7530;DHT22;3806;52.270;10.544;2023-04-03T08:27:34;31.10;16.60
7530;DHT22;3806;52.270;10.544;2023-04-03T08:29:59;30.80;16.20
7530;DHT22;3806;52.270;10.544;2023-04-03T08:32:25;30.90;16.00
7530;DHT22;3806;52.270;10.544;2023-04-03T08:34:51;30.70;15.90
7530;DHT22;3806;52.270;10.544;2023-04-03T08:37:16;29.90;15.90
7530;DHT22;3806;52.270;10.544;2023-04-03T08:39:42;29.10;15.90
7530;DHT22;3806;52.270;10.544;2023-04-03T08:42:32;29.50;16.60
7530;DHT22;3806;52.270;10.544;2023-04-03T08:45:10;30.20;15.70
7530;DHT22;3806;52.270;10.544;2023-04-03T08:50:29;30.10;15.60
7530;DHT22;3806;52.270;10.544;2023-04-03T08:52:57;30.90;15.30
7530;DHT22;3806;52.270;10.544;2023-04-03T08:55:31;30.50;15.10
7530;DHT22;3806;52.270;10.544;2023-04-03T08:58:06;29.00;15.60
7530;DHT22;3806;52.270;10.544;2023-04-03T09:00:43;28.50;15.40
7530;DHT22;3806;52.270;10.544;2023-04-03T09:03:15;27.50;16.00
7530;DHT22;3806;52.270;10.544;2023-04-03T09:05:49;26.80;16.40
7530;DHT22;3806;52.270;10.544;2023-04-03T09:11:27;25.90;17.10
7530;DHT22;3806;52.270;10.544;2023-04-03T09:16:36;26.10;16.30
7530;DHT22;3806;52.270;10.544;2023-04-03T09:21:53;23.50;17.70
7530;DHT22;3806;52.270;10.544;2023-04-03T09:24:18;23.90;18.40
7530;DHT22;3806;52.270;10.544;2023-04-03T09:26:51;25.90;18.10
7530;DHT22;3806;52.270;10.544;2023-04-03T09:29:23;28.10;16.90
7530;DHT22;3806;52.270;10.544;2023-04-03T09:32:02;29.40;16.10
7530;DHT22;3806;52.270;10.544;2023-04-03T09:34:32;28.50;15.70
7530;DHT22;3806;52.270;10.544;2023-04-03T09:37:02;27.30;16.20
7530;DHT22;3806;52.270;10.544;2023-04-03T09:39:33;25.50;16.60
7530;DHT22;3806;52.270;10.544;2023-04-03T09:42:21;24.30;17.70
7530;DHT22;3806;52.270;10.544;2023-04-03T09:45:00;25.10;18.10
7530;DHT22;3806;52.270;10.544;2023-04-03T09:47:34;26.10;17.70
7530;DHT22;3806;52.270;10.544;2023-04-03T09:52:39;26.90;16.40
7530;DHT22;3806;52.270;10.544;2023-04-03T09:55:08;25.40;16.60
7530;DHT22;3806;52.270;10.544;2023-04-03T09:57:33;23.40;17.20
7530;DHT22;3806;52.270;10.544;2023-04-03T10:00:01;21.30;18.20
7530;DHT22;3806;52.270;10.544;2023-04-03T10:02:32;19.50;19.20
7530;DHT22;3806;52.270;10.544;2023-04-03T10:04:58;17.90;20.40
7530;DHT22;3806;52.270;10.544;2023-04-03T10:10:00;15.30;22.60
7530;DHT22;3806;52.270;10.544;2023-04-03T10:12:27;14.30;23.20
7530;DHT22;3806;52.270;10.544;2023-04-03T10:19:57;12.30;25.70
7530;DHT22;3806;52.270;10.544;2023-04-03T10:22:45;11.80;26.20
7530;DHT22;3806;52.270;10.544;2023-04-03T10:26:08;11.40;26.80
7530;DHT22;3806;52.270;10.544;2023-04-03T10:29:04;10.90;27.00
7530;DHT22;3806;52.270;10.544;2023-04-03T10:34:37;10.30;27.50
7530;DHT22;3806;52.270;10.544;2023-04-03T10:39:57;10.00;27.90
7530;DHT22;3806;52.270;10.544;2023-04-03T10:47:51;10.10;28.20
7530;DHT22;3806;52.270;10.544;2023-04-03T10:54:00;10.70;27.90
7530;DHT22;3806;52.270;10.544;2023-04-03T10:56:43;11.60;28.00
7530;DHT22;3806;52.270;10.544;2023-04-03T10:59:18;12.60;26.70
7530;DHT22;3806;52.270;10.544;2023-04-03T11:01:59;13.30;24.80
7530;DHT22;3806;52.270;10.544;2023-04-03T11:04:29;13.30;24.50
7530;DHT22;3806;52.270;10.544;2023-04-03T11:07:02;13.30;24.80
7530;DHT22;3806;52.270;10.544;2023-04-03T11:09:52;13.20;25.30
7530;DHT22;3806;52.270;10.544;2023-04-03T11:12:40;13.10;25.30
7530;DHT22;3806;52.270;10.544;2023-04-03T11:15:15;12.80;25.30
7530;DHT22;3806;52.270;10.544;2023-04-03T11:17:54;12.30;25.30
7530;DHT22;3806;52.270;10.544;2023-04-03T11:20:25;11.90;25.60
7530;DHT22;3806;52.270;10.544;2023-04-03T11:23:26;11.50;26.20
7530;DHT22;3806;52.270;10.544;2023-04-03T11:25:54;11.10;26.60
7530;DHT22;3806;52.270;10.544;2023-04-03T11:28:21;10.80;26.90
7530;DHT22;3806;52.270;10.544;2023-04-03T11:31:01;10.80;27.10
7530;DHT22;3806;52.270;10.544;2023-04-03T11:36:52;10.90;26.10
7530;DHT22;3806;52.270;10.544;2023-04-03T11:39:34;10.90;26.00
7530;DHT22;3806;52.270;10.544;2023-04-03T11:44:45;11.20;26.30
7530;DHT22;3806;52.270;10.544;2023-04-03T11:47:12;11.30;25.90
7530;DHT22;3806;52.270;10.544;2023-04-03T12:06:41;11.80;25.60
7530;DHT22;3806;52.270;10.544;2023-04-03T12:08:49;11.70;25.50
7530;DHT22;3806;52.270;10.544;2023-04-03T12:11:29;11.80;25.80
7530;DHT22;3806;52.270;10.544;2023-04-03T12:16:42;12.50;25.70
7530;DHT22;3806;52.270;10.544;2023-04-03T12:27:03;12.00;24.30
7530;DHT22;3806;52.270;10.544;2023-04-03T12:29:41;11.90;25.00
7530;DHT22;3806;52.270;10.544;2023-04-03T12:35:19;11.40;25.90
7530;DHT22;3806;52.270;10.544;2023-04-03T12:43:41;11.10;26.10
7530;DHT22;3806;52.270;10.544;2023-04-03T12:48:55;10.80;26.80
7530;DHT22;3806;52.270;10.544;2023-04-03T12:51:44;10.70;26.90
7530;DHT22;3806;52.270;10.544;2023-04-03T12:57:09;11.00;26.30
7530;DHT22;3806;52.270;10.544;2023-04-03T12:59:35;11.70;25.60
7530;DHT22;3806;52.270;10.544;2023-04-03T13:02:02;12.30;24.90
7530;DHT22;3806;52.270;10.544;2023-04-03T13:04:30;12.70;24.50
7530;DHT22;3806;52.270;10.544;2023-04-03T13:06:56;12.70;24.70
7530;DHT22;3806;52.270;10.544;2023-04-03T13:09:26;12.70;24.90
7530;DHT22;3806;52.270;10.544;2023-04-03T13:12:12;12.80;25.00
7530;DHT22;3806;52.270;10.544;2023-04-03T13:14:39;12.90;24.30
7530;DHT22;3806;52.270;10.544;2023-04-03T13:19:37;13.50;24.10
7530;DHT22;3806;52.270;10.544;2023-04-03T13:22:11;13.70;23.30
7530;DHT22;3806;52.270;10.544;2023-04-03T13:24:46;13.90;23.20
7530;DHT22;3806;52.270;10.544;2023-04-03T13:27:14;14.10;23.00
7530;DHT22;3806;52.270;10.544;2023-04-03T13:29:40;14.10;22.90
7530;DHT22;3806;52.270;10.544;2023-04-03T13:32:06;14.00;23.10
7530;DHT22;3806;52.270;10.544;2023-04-03T13:34:42;13.70;23.30
7530;DHT22;3806;52.270;10.544;2023-04-03T13:39:45;12.70;24.60
7530;DHT22;3806;52.270;10.544;2023-04-03T13:42:26;12.30;24.80
7530;DHT22;3806;52.270;10.544;2023-04-03T13:47:43;11.50;24.60
7530;DHT22;3806;52.270;10.544;2023-04-03T13:50:17;11.30;24.60
7530;DHT22;3806;52.270;10.544;2023-04-03T13:52:59;11.20;25.00
7530;DHT22;3806;52.270;10.544;2023-04-03T13:55:34;11.10;25.50
7530;DHT22;3806;52.270;10.544;2023-04-03T13:58:23;11.30;25.70
7530;DHT22;3806;52.270;10.544;2023-04-03T14:01:00;11.40;25.50
7530;DHT22;3806;52.270;10.544;2023-04-03T14:03:31;11.40;25.70
7530;DHT22;3806;52.270;10.544;2023-04-03T14:05:58;11.30;25.50
7530;DHT22;3806;52.270;10.544;2023-04-03T14:08:24;11.20;25.70
7530;DHT22;3806;52.270;10.544;2023-04-03T14:10:50;11.00;26.00
7530;DHT22;3806;52.270;10.544;2023-04-03T14:13:18;10.80;26.10
7530;DHT22;3806;52.270;10.544;2023-04-03T14:15:45;10.70;26.50
7530;DHT22;3806;52.270;10.544;2023-04-03T14:18:15;10.60;26.50
7530;DHT22;3806;52.270;10.544;2023-04-03T14:20:41;10.60;26.60
7530;DHT22;3806;52.270;10.544;2023-04-03T14:23:07;10.50;26.70
7530;DHT22;3806;52.270;10.544;2023-04-03T14:25:32;10.30;26.50
7530;DHT22;3806;52.270;10.544;2023-04-03T14:27:59;10.20;26.70
7530;DHT22;3806;52.270;10.544;2023-04-03T14:30:31;10.10;26.40
7530;DHT22;3806;52.270;10.544;2023-04-03T14:32:57;10.20;26.70
7530;DHT22;3806;52.270;10.544;2023-04-03T14:35:24;10.30;26.60
7530;DHT22;3806;52.270;10.544;2023-04-03T14:37:51;10.50;26.70
7530;DHT22;3806;52.270;10.544;2023-04-03T14:40:21;10.40;27.20
7530;DHT22;3806;52.270;10.544;2023-04-03T14:42:47;10.30;26.60
7530;DHT22;3806;52.270;10.544;2023-04-03T14:45:14;10.10;26.70
7530;DHT22;3806;52.270;10.544;2023-04-03T14:47:47;9.90;27.50
7530;DHT22;3806;52.270;10.544;2023-04-03T14:50:24;9.60;27.60
7530;DHT22;3806;52.270;10.544;2023-04-03T14:52:52;9.50;27.80
7530;DHT22;3806;52.270;10.544;2023-04-03T14:55:21;9.40;27.90
7530;DHT22;3806;52.270;10.544;2023-04-03T14:57:47;9.40;28.10
7530;DHT22;3806;52.270;10.544;2023-04-03T15:00:18;9.50;28.40
7530;DHT22;3806;52.270;10.544;2023-04-03T15:02:45;9.60;28.50
7530;DHT22;3806;52.270;10.544;2023-04-03T15:05:12;9.60;28.10
7530;DHT22;3806;52.270;10.544;2023-04-03T15:07:49;9.50;28.00
7530;DHT22;3806;52.270;10.544;2023-04-03T15:10:20;9.40;28.30
7530;DHT22;3806;52.270;10.544;2023-04-03T15:12:48;9.40;28.70
7530;DHT22;3806;52.270;10.544;2023-04-03T15:15:14;9.50;29.20
7530;DHT22;3806;52.270;10.544;2023-04-03T15:17:41;9.40;29.90
7530;DHT22;3806;52.270;10.544;2023-04-03T15:20:27;9.40;30.00
7530;DHT22;3806;52.270;10.544;2023-04-03T15:22:55;9.40;29.50
7530;DHT22;3806;52.270;10.544;2023-04-03T15:25:26;9.30;29.00
7530;DHT22;3806;52.270;10.544;2023-04-03T15:27:53;9.20;29.00
7530;DHT22;3806;52.270;10.544;2023-04-03T15:30:19;9.20;28.70
7530;DHT22;3806;52.270;10.544;2023-04-03T15:32:46;9.10;28.60
7530;DHT22;3806;52.270;10.544;2023-04-03T15:35:11;9.10;28.30
7530;DHT22;3806;52.270;10.544;2023-04-03T15:37:37;9.10;28.40
7530;DHT22;3806;52.270;10.544;2023-04-03T15:40:04;9.20;28.60
7530;DHT22;3806;52.270;10.544;2023-04-03T15:42:30;9.20;28.70
7530;DHT22;3806;52.270;10.544;2023-04-03T15:44:55;9.30;28.80
7530;DHT22;3806;52.270;10.544;2023-04-03T15:47:21;9.30;29.20
7530;DHT22;3806;52.270;10.544;2023-04-03T15:49:46;9.30;29.40
7530;DHT22;3806;52.270;10.544;2023-04-03T15:52:12;9.30;29.20
7530;DHT22;3806;52.270;10.544;2023-04-03T15:54:37;9.20;29.30
7530;DHT22;3806;52.270;10.544;2023-04-03T15:57:04;9.20;29.50
7530;DHT22;3806;52.270;10.544;2023-04-03T15:59:29;9.00;29.60
7530;DHT22;3806;52.270;10.544;2023-04-03T16:01:57;8.90;29.80
7530;DHT22;3806;52.270;10.544;2023-04-03T16:04:23;8.80;29.90
7530;DHT22;3806;52.270;10.544;2023-04-03T16:06:49;8.70;29.80
7530;DHT22;3806;52.270;10.544;2023-04-03T16:09:15;8.70;29.80
7530;DHT22;3806;52.270;10.544;2023-04-03T16:11:41;8.60;29.40
7530;DHT22;3806;52.270;10.544;2023-04-03T16:14:07;8.60;29.30
7530;DHT22;3806;52.270;10.544;2023-04-03T16:16:33;8.60;29.40
7530;DHT22;3806;52.270;10.544;2023-04-03T16:18:59;8.60;29.50
7530;DHT22;3806;52.270;10.544;2023-04-03T16:21:24;8.70;29.70
7530;DHT22;3806;52.270;10.544;2023-04-03T16:23:50;8.70;29.50
7530;DHT22;3806;52.270;10.544;2023-04-03T16:26:16;8.70;29.60
7530;DHT22;3806;52.270;10.544;2023-04-03T16:28:42;8.70;29.40
7530;DHT22;3806;52.270;10.544;2023-04-03T16:31:08;8.70;29.30
7530;DHT22;3806;52.270;10.544;2023-04-03T16:33:34;8.70;29.50
7530;DHT22;3806;52.270;10.544;2023-04-03T16:36:00;8.70;29.50
7530;DHT22;3806;52.270;10.544;2023-04-03T16:38:26;8.70;29.30
7530;DHT22;3806;52.270;10.544;2023-04-03T16:40:52;8.80;29.60
7530;DHT22;3806;52.270;10.544;2023-04-03T16:43:24;8.60;29.50
7530;DHT22;3806;52.270;10.544;2023-04-03T16:45:50;8.60;29.80
7530;DHT22;3806;52.270;10.544;2023-04-03T16:48:15;8.50;29.70
7530;DHT22;3806;52.270;10.544;2023-04-03T16:50:41;8.40;29.90
7530;DHT22;3806;52.270;10.544;2023-04-03T16:53:07;8.30;30.00
7530;DHT22;3806;52.270;10.544;2023-04-03T16:55:35;8.20;30.20
7530;DHT22;3806;52.270;10.544;2023-04-03T16:58:01;8.30;30.40
7530;DHT22;3806;52.270;10.544;2023-04-03T17:00:29;8.20;30.00
7530;DHT22;3806;52.270;10.544;2023-04-03T17:02:55;8.20;30.10
7530;DHT22;3806;52.270;10.544;2023-04-03T17:05:20;8.20;30.10
7530;DHT22;3806;52.270;10.544;2023-04-03T17:07:46;8.10;30.30
7530;DHT22;3806;52.270;10.544;2023-04-03T17:10:12;8.20;30.40
7530;DHT22;3806;52.270;10.544;2023-04-03T17:12:38;8.10;30.20
7530;DHT22;3806;52.270;10.544;2023-04-03T17:15:04;8.10;30.40
7530;DHT22;3806;52.270;10.544;2023-04-03T17:17:29;8.00;30.30
7530;DHT22;3806;52.270;10.544;2023-04-03T17:19:55;8.00;30.50
7530;DHT22;3806;52.270;10.544;2023-04-03T17:22:21;8.00;30.70
7530;DHT22;3806;52.270;10.544;2023-04-03T17:24:47;7.90;31.00
7530;DHT22;3806;52.270;10.544;2023-04-03T17:27:12;7.90;31.30
7530;DHT22;3806;52.270;10.544;2023-04-03T17:29:38;7.80;31.40
7530;DHT22;3806;52.270;10.544;2023-04-03T17:32:03;7.80;31.50
7530;DHT22;3806;52.270;10.544;2023-04-03T17:34:29;7.80;32.00
7530;DHT22;3806;52.270;10.544;2023-04-03T17:36:54;7.60;32.30
7530;DHT22;3806;52.270;10.544;2023-04-03T17:39:20;7.60;32.80
7530;DHT22;3806;52.270;10.544;2023-04-03T17:41:46;7.50;33.20